General Piran, Argentina
Current Conditions -  °F | °C
As of 12:00 PM on Thursday 23 Oct 2014 (Local Time) from SAZM Reporting Station
Clear Clear  
Wind Chill: 64°   Ceiling: Unl
Heat Index: 64°   Visibility: 6mi
Dew Point: 45°   Wind: 14mph
Humidity: 49%   Direction: 110°ESE
Pressure: 30.12"   Gusts: NA
Location:  37.28°S, 57.79°W
Report Text: SAZM 231500Z 11012KT CAVOK 18/07 Q1020
Loading
Personal Weather Stations






























Interactive Weather Map New forecast layout! Learn more

10-Day Weather Forecast

Advertisements
Track Severe Weather on mobile